sensor_id;sensor_type;location;lat;lon;timestamp;temperature;humidity
6355;DHT22;3210;48.708;9.030;2022-10-29T00:02:07;11.70;99.90
6355;DHT22;3210;48.708;9.030;2022-10-29T00:04:34;11.70;99.90
6355;DHT22;3210;48.708;9.030;2022-10-29T00:07:01;11.70;99.90
6355;DHT22;3210;48.708;9.030;2022-10-29T00:09:29;11.70;99.90
6355;DHT22;3210;48.708;9.030;2022-10-29T00:11:56;11.80;58.00
6355;DHT22;3210;48.708;9.030;2022-10-29T00:14:23;11.60;1.00
6355;DHT22;3210;48.708;9.030;2022-10-29T00:16:50;11.60;69.60
6355;DHT22;3210;48.708;9.030;2022-10-29T00:19:17;11.60;1.00
6355;DHT22;3210;48.708;9.030;2022-10-29T00:21:44;11.60;1.00
6355;DHT22;3210;48.708;9.030;2022-10-29T00:24:11;11.50;1.00
6355;DHT22;3210;48.708;9.030;2022-10-29T00:26:39;11.50;1.00
6355;DHT22;3210;48.708;9.030;2022-10-29T00:29:06;11.40;1.00
6355;DHT22;3210;48.708;9.030;2022-10-29T00:31:35;11.40;1.00
6355;DHT22;3210;48.708;9.030;2022-10-29T00:34:02;11.40;1.00
6355;DHT22;3210;48.708;9.030;2022-10-29T00:36:29;11.30;1.00
6355;DHT22;3210;48.708;9.030;2022-10-29T00:38:56;11.30;1.00
6355;DHT22;3210;48.708;9.030;2022-10-29T00:41:25;11.40;1.00
6355;DHT22;3210;48.708;9.030;2022-10-29T00:47:00;11.20;99.90
6355;DHT22;3210;48.708;9.030;2022-10-29T00:49:30;11.20;99.90
6355;DHT22;3210;48.708;9.030;2022-10-29T00:51:57;11.10;1.00
6355;DHT22;3210;48.708;9.030;2022-10-29T00:54:26;11.30;1.00
6355;DHT22;3210;48.708;9.030;2022-10-29T00:56:57;11.20;1.00
6355;DHT22;3210;48.708;9.030;2022-10-29T00:59:25;11.20;1.00
6355;DHT22;3210;48.708;9.030;2022-10-29T01:01:54;11.20;99.90
6355;DHT22;3210;48.708;9.030;2022-10-29T01:04:21;11.20;99.90
6355;DHT22;3210;48.708;9.030;2022-10-29T01:06:50;11.20;48.60
6355;DHT22;3210;48.708;9.030;2022-10-29T01:09:17;11.20;1.00
6355;DHT22;3210;48.708;9.030;2022-10-29T01:11:51;11.20;1.00
6355;DHT22;3210;48.708;9.030;2022-10-29T01:14:29;11.20;1.00
6355;DHT22;3210;48.708;9.030;2022-10-29T01:17:04;11.30;1.00
6355;DHT22;3210;48.708;9.030;2022-10-29T01:20:12;11.30;1.00
6355;DHT22;3210;48.708;9.030;2022-10-29T01:22:43;11.40;1.00
6355;DHT22;3210;48.708;9.030;2022-10-29T01:25:29;11.30;1.00
6355;DHT22;3210;48.708;9.030;2022-10-29T01:28:07;11.40;1.00
6355;DHT22;3210;48.708;9.030;2022-10-29T01:30:56;11.50;1.00
6355;DHT22;3210;48.708;9.030;2022-10-29T01:33:29;11.50;99.90
6355;DHT22;3210;48.708;9.030;2022-10-29T01:36:05;11.50;99.90
6355;DHT22;3210;48.708;9.030;2022-10-29T01:38:37;11.50;99.90
6355;DHT22;3210;48.708;9.030;2022-10-29T01:41:10;11.50;99.90
6355;DHT22;3210;48.708;9.030;2022-10-29T01:43:44;11.50;1.00
6355;DHT22;3210;48.708;9.030;2022-10-29T01:46:17;11.60;1.00
6355;DHT22;3210;48.708;9.030;2022-10-29T01:48:48;11.50;1.00
6355;DHT22;3210;48.708;9.030;2022-10-29T01:51:20;11.60;1.00
6355;DHT22;3210;48.708;9.030;2022-10-29T01:53:48;11.60;1.00
6355;DHT22;3210;48.708;9.030;2022-10-29T01:56:16;11.60;1.00
6355;DHT22;3210;48.708;9.030;2022-10-29T01:58:46;11.70;99.90
6355;DHT22;3210;48.708;9.030;2022-10-29T02:01:29;11.50;99.90
6355;DHT22;3210;48.708;9.030;2022-10-29T02:04:07;11.60;99.90
6355;DHT22;3210;48.708;9.030;2022-10-29T02:06:46;11.60;99.90
6355;DHT22;3210;48.708;9.030;2022-10-29T02:09:21;11.50;99.90
6355;DHT22;3210;48.708;9.030;2022-10-29T02:11:56;11.50;99.90
6355;DHT22;3210;48.708;9.030;2022-10-29T02:14:29;11.50;99.90
6355;DHT22;3210;48.708;9.030;2022-10-29T02:16:59;11.60;99.90
6355;DHT22;3210;48.708;9.030;2022-10-29T02:19:28;11.50;99.90
6355;DHT22;3210;48.708;9.030;2022-10-29T02:21:55;11.60;99.90
6355;DHT22;3210;48.708;9.030;2022-10-29T02:24:22;11.60;99.90
6355;DHT22;3210;48.708;9.030;2022-10-29T02:26:49;11.60;99.90
6355;DHT22;3210;48.708;9.030;2022-10-29T02:29:16;11.70;99.90
6355;DHT22;3210;48.708;9.030;2022-10-29T02:31:43;11.70;99.90
6355;DHT22;3210;48.708;9.030;2022-10-29T02:34:12;11.70;99.90
6355;DHT22;3210;48.708;9.030;2022-10-29T02:36:39;11.70;99.90
6355;DHT22;3210;48.708;9.030;2022-10-29T02:39:06;11.80;99.90
6355;DHT22;3210;48.708;9.030;2022-10-29T02:41:32;11.80;99.90
6355;DHT22;3210;48.708;9.030;2022-10-29T02:43:59;11.80;1.00
6355;DHT22;3210;48.708;9.030;2022-10-29T02:46:26;11.90;1.00
6355;DHT22;3210;48.708;9.030;2022-10-29T02:48:54;11.80;1.00
6355;DHT22;3210;48.708;9.030;2022-10-29T02:51:23;11.80;99.90
6355;DHT22;3210;48.708;9.030;2022-10-29T02:53:49;11.90;99.90
6355;DHT22;3210;48.708;9.030;2022-10-29T02:56:17;11.90;99.90
6355;DHT22;3210;48.708;9.030;2022-10-29T02:58:43;11.90;99.90
6355;DHT22;3210;48.708;9.030;2022-10-29T03:01:10;12.00;99.90
6355;DHT22;3210;48.708;9.030;2022-10-29T03:03:37;11.90;99.90
6355;DHT22;3210;48.708;9.030;2022-10-29T03:06:10;11.90;99.90
6355;DHT22;3210;48.708;9.030;2022-10-29T03:08:38;11.90;99.90
6355;DHT22;3210;48.708;9.030;2022-10-29T03:11:05;11.90;99.90
6355;DHT22;3210;48.708;9.030;2022-10-29T03:13:32;11.90;99.90
6355;DHT22;3210;48.708;9.030;2022-10-29T03:15:59;11.90;99.90
6355;DHT22;3210;48.708;9.030;2022-10-29T03:18:26;11.90;99.90
6355;DHT22;3210;48.708;9.030;2022-10-29T03:20:52;11.90;99.90
6355;DHT22;3210;48.708;9.030;2022-10-29T03:23:19;11.80;99.90
6355;DHT22;3210;48.708;9.030;2022-10-29T03:25:49;11.80;99.90
6355;DHT22;3210;48.708;9.030;2022-10-29T03:28:18;11.80;1.00
6355;DHT22;3210;48.708;9.030;2022-10-29T03:30:44;11.80;1.00
6355;DHT22;3210;48.708;9.030;2022-10-29T03:33:11;11.80;1.00
6355;DHT22;3210;48.708;9.030;2022-10-29T03:35:38;11.90;99.90
6355;DHT22;3210;48.708;9.030;2022-10-29T03:38:05;11.80;99.90
6355;DHT22;3210;48.708;9.030;2022-10-29T03:40:32;11.70;99.90
6355;DHT22;3210;48.708;9.030;2022-10-29T03:43:03;11.70;1.00
6355;DHT22;3210;48.708;9.030;2022-10-29T03:45:52;11.70;1.00
6355;DHT22;3210;48.708;9.030;2022-10-29T03:48:19;11.70;1.00
6355;DHT22;3210;48.708;9.030;2022-10-29T03:50:53;11.60;1.00
6355;DHT22;3210;48.708;9.030;2022-10-29T03:53:21;11.60;1.00
6355;DHT22;3210;48.708;9.030;2022-10-29T03:55:49;11.60;40.30
6355;DHT22;3210;48.708;9.030;2022-10-29T03:58:17;11.60;99.90
6355;DHT22;3210;48.708;9.030;2022-10-29T04:00:52;11.60;99.90
6355;DHT22;3210;48.708;9.030;2022-10-29T04:03:21;11.60;99.90
6355;DHT22;3210;48.708;9.030;2022-10-29T04:05:48;11.60;99.90
6355;DHT22;3210;48.708;9.030;2022-10-29T04:08:15;11.60;99.90
6355;DHT22;3210;48.708;9.030;2022-10-29T04:10:45;11.60;1.00
6355;DHT22;3210;48.708;9.030;2022-10-29T04:13:13;11.60;1.00
6355;DHT22;3210;48.708;9.030;2022-10-29T04:15:41;11.60;1.00
6355;DHT22;3210;48.708;9.030;2022-10-29T04:18:09;11.60;1.00
6355;DHT22;3210;48.708;9.030;2022-10-29T04:20:37;11.60;1.00
6355;DHT22;3210;48.708;9.030;2022-10-29T04:23:04;11.60;1.00
6355;DHT22;3210;48.708;9.030;2022-10-29T04:25:31;11.60;1.00
6355;DHT22;3210;48.708;9.030;2022-10-29T04:28:07;11.50;10.40
6355;DHT22;3210;48.708;9.030;2022-10-29T04:30:37;11.50;74.10
6355;DHT22;3210;48.708;9.030;2022-10-29T04:33:13;11.50;99.90
6355;DHT22;3210;48.708;9.030;2022-10-29T04:35:53;11.50;99.90
6355;DHT22;3210;48.708;9.030;2022-10-29T04:38:20;11.50;99.90
6355;DHT22;3210;48.708;9.030;2022-10-29T04:40:47;11.50;99.90
6355;DHT22;3210;48.708;9.030;2022-10-29T04:43:15;11.40;99.90
6355;DHT22;3210;48.708;9.030;2022-10-29T04:45:42;11.30;99.90
6355;DHT22;3210;48.708;9.030;2022-10-29T04:48:10;11.30;99.90
6355;DHT22;3210;48.708;9.030;2022-10-29T04:50:37;11.30;1.00
6355;DHT22;3210;48.708;9.030;2022-10-29T04:53:05;11.30;1.00
6355;DHT22;3210;48.708;9.030;2022-10-29T04:55:35;11.20;34.00
6355;DHT22;3210;48.708;9.030;2022-10-29T04:58:03;11.20;1.00
6355;DHT22;3210;48.708;9.030;2022-10-29T05:00:29;11.20;12.60
6355;DHT22;3210;48.708;9.030;2022-10-29T05:02:56;11.20;1.00
6355;DHT22;3210;48.708;9.030;2022-10-29T05:05:25;11.20;99.90
6355;DHT22;3210;48.708;9.030;2022-10-29T05:07:56;11.20;99.90
6355;DHT22;3210;48.708;9.030;2022-10-29T05:10:24;11.10;1.00
6355;DHT22;3210;48.708;9.030;2022-10-29T05:12:56;11.10;55.80
6355;DHT22;3210;48.708;9.030;2022-10-29T05:15:22;11.30;99.90
6355;DHT22;3210;48.708;9.030;2022-10-29T05:17:49;11.20;99.90
6355;DHT22;3210;48.708;9.030;2022-10-29T05:20:16;11.20;99.90
6355;DHT22;3210;48.708;9.030;2022-10-29T05:22:44;11.10;99.90
6355;DHT22;3210;48.708;9.030;2022-10-29T05:25:11;11.10;99.90
6355;DHT22;3210;48.708;9.030;2022-10-29T05:27:39;11.10;1.00
6355;DHT22;3210;48.708;9.030;2022-10-29T05:30:06;11.00;99.90
6355;DHT22;3210;48.708;9.030;2022-10-29T05:32:34;10.90;99.90
6355;DHT22;3210;48.708;9.030;2022-10-29T05:35:01;10.70;1.00
6355;DHT22;3210;48.708;9.030;2022-10-29T05:37:27;10.80;1.00
6355;DHT22;3210;48.708;9.030;2022-10-29T05:39:56;10.80;1.00
6355;DHT22;3210;48.708;9.030;2022-10-29T05:42:23;10.90;1.00
6355;DHT22;3210;48.708;9.030;2022-10-29T05:44:49;10.80;1.00
6355;DHT22;3210;48.708;9.030;2022-10-29T05:47:16;10.70;1.00
6355;DHT22;3210;48.708;9.030;2022-10-29T05:49:43;10.70;99.90
6355;DHT22;3210;48.708;9.030;2022-10-29T05:52:10;10.70;99.90
6355;DHT22;3210;48.708;9.030;2022-10-29T05:54:37;10.60;40.80
6355;DHT22;3210;48.708;9.030;2022-10-29T05:57:05;10.60;99.90
6355;DHT22;3210;48.708;9.030;2022-10-29T05:59:32;10.60;99.90
6355;DHT22;3210;48.708;9.030;2022-10-29T06:01:59;10.50;99.90
6355;DHT22;3210;48.708;9.030;2022-10-29T06:04:25;10.60;99.90
6355;DHT22;3210;48.708;9.030;2022-10-29T06:06:52;10.60;1.00
6355;DHT22;3210;48.708;9.030;2022-10-29T06:09:19;10.70;1.00
6355;DHT22;3210;48.708;9.030;2022-10-29T06:11:46;10.60;99.90
6355;DHT22;3210;48.708;9.030;2022-10-29T06:14:14;10.60;99.90
6355;DHT22;3210;48.708;9.030;2022-10-29T06:16:41;10.70;99.90
6355;DHT22;3210;48.708;9.030;2022-10-29T06:19:08;10.60;99.90
6355;DHT22;3210;48.708;9.030;2022-10-29T06:21:35;10.60;99.90
6355;DHT22;3210;48.708;9.030;2022-10-29T06:24:02;10.60;99.90
6355;DHT22;3210;48.708;9.030;2022-10-29T06:26:29;10.60;99.90
6355;DHT22;3210;48.708;9.030;2022-10-29T06:28:55;10.60;1.00
6355;DHT22;3210;48.708;9.030;2022-10-29T06:31:24;10.60;99.90
6355;DHT22;3210;48.708;9.030;2022-10-29T06:33:51;10.60;1.00
6355;DHT22;3210;48.708;9.030;2022-10-29T06:36:17;10.60;1.00
6355;DHT22;3210;48.708;9.030;2022-10-29T06:38:44;10.60;1.00
6355;DHT22;3210;48.708;9.030;2022-10-29T06:41:11;10.60;99.90
6355;DHT22;3210;48.708;9.030;2022-10-29T06:43:38;10.60;99.90
6355;DHT22;3210;48.708;9.030;2022-10-29T06:46:05;10.60;99.90
6355;DHT22;3210;48.708;9.030;2022-10-29T06:48:33;10.70;99.90
6355;DHT22;3210;48.708;9.030;2022-10-29T06:51:00;10.70;99.90
6355;DHT22;3210;48.708;9.030;2022-10-29T06:53:27;10.70;49.70
6355;DHT22;3210;48.708;9.030;2022-10-29T06:55:54;10.70;79.70
6355;DHT22;3210;48.708;9.030;2022-10-29T06:58:20;10.80;99.90
6355;DHT22;3210;48.708;9.030;2022-10-29T07:00:47;10.90;1.00
6355;DHT22;3210;48.708;9.030;2022-10-29T07:03:15;11.00;1.00
6355;DHT22;3210;48.708;9.030;2022-10-29T07:05:44;11.00;1.00
6355;DHT22;3210;48.708;9.030;2022-10-29T07:08:11;11.10;99.90
6355;DHT22;3210;48.708;9.030;2022-10-29T07:10:38;11.20;99.90
6355;DHT22;3210;48.708;9.030;2022-10-29T07:13:05;11.20;99.90
6355;DHT22;3210;48.708;9.030;2022-10-29T07:15:32;11.30;99.90
6355;DHT22;3210;48.708;9.030;2022-10-29T07:18:00;11.40;99.90
6355;DHT22;3210;48.708;9.030;2022-10-29T07:20:30;11.40;99.90
6355;DHT22;3210;48.708;9.030;2022-10-29T07:22:58;11.50;79.20
6355;DHT22;3210;48.708;9.030;2022-10-29T07:25:26;11.60;72.40
6355;DHT22;3210;48.708;9.030;2022-10-29T07:27:53;11.60;1.00
6355;DHT22;3210;48.708;9.030;2022-10-29T07:30:20;11.70;1.00
6355;DHT22;3210;48.708;9.030;2022-10-29T07:32:47;11.70;1.00
6355;DHT22;3210;48.708;9.030;2022-10-29T07:35:14;11.80;1.00
6355;DHT22;3210;48.708;9.030;2022-10-29T07:37:41;11.90;6.10
6355;DHT22;3210;48.708;9.030;2022-10-29T07:40:10;12.00;1.00
6355;DHT22;3210;48.708;9.030;2022-10-29T07:42:37;12.10;1.00
6355;DHT22;3210;48.708;9.030;2022-10-29T07:45:05;12.20;1.00
6355;DHT22;3210;48.708;9.030;2022-10-29T07:47:32;12.30;1.00
6355;DHT22;3210;48.708;9.030;2022-10-29T07:49:59;12.50;99.90
6355;DHT22;3210;48.708;9.030;2022-10-29T07:52:26;12.60;99.90
6355;DHT22;3210;48.708;9.030;2022-10-29T07:54:53;12.70;99.90
6355;DHT22;3210;48.708;9.030;2022-10-29T07:57:21;12.80;99.90
6355;DHT22;3210;48.708;9.030;2022-10-29T07:59:48;13.00;99.90
6355;DHT22;3210;48.708;9.030;2022-10-29T08:02:16;13.10;99.90
6355;DHT22;3210;48.708;9.030;2022-10-29T08:04:43;13.30;40.70
6355;DHT22;3210;48.708;9.030;2022-10-29T08:07:10;13.40;1.00
6355;DHT22;3210;48.708;9.030;2022-10-29T08:09:37;13.60;1.00
6355;DHT22;3210;48.708;9.030;2022-10-29T08:12:05;13.70;1.00
6355;DHT22;3210;48.708;9.030;2022-10-29T08:14:34;13.90;1.00
6355;DHT22;3210;48.708;9.030;2022-10-29T08:17:01;14.20;99.90
6355;DHT22;3210;48.708;9.030;2022-10-29T08:19:27;14.40;99.90
6355;DHT22;3210;48.708;9.030;2022-10-29T08:21:55;14.50;99.90
6355;DHT22;3210;48.708;9.030;2022-10-29T08:24:22;14.80;99.90
6355;DHT22;3210;48.708;9.030;2022-10-29T08:26:49;15.00;99.90
6355;DHT22;3210;48.708;9.030;2022-10-29T08:29:16;15.20;1.00
6355;DHT22;3210;48.708;9.030;2022-10-29T08:31:44;15.60;99.90
6355;DHT22;3210;48.708;9.030;2022-10-29T08:34:11;16.00;99.90
6355;DHT22;3210;48.708;9.030;2022-10-29T08:36:38;16.20;99.90
6355;DHT22;3210;48.708;9.030;2022-10-29T08:39:06;16.40;99.90
6355;DHT22;3210;48.708;9.030;2022-10-29T08:41:36;16.50;99.90
6355;DHT22;3210;48.708;9.030;2022-10-29T08:44:17;16.70;99.90
6355;DHT22;3210;48.708;9.030;2022-10-29T08:46:51;16.80;99.90
6355;DHT22;3210;48.708;9.030;2022-10-29T08:49:21;17.00;99.90
6355;DHT22;3210;48.708;9.030;2022-10-29T08:51:55;17.10;99.90
6355;DHT22;3210;48.708;9.030;2022-10-29T08:54:27;17.20;99.90
6355;DHT22;3210;48.708;9.030;2022-10-29T08:56:57;17.30;99.90
6355;DHT22;3210;48.708;9.030;2022-10-29T08:59:27;17.40;99.90
6355;DHT22;3210;48.708;9.030;2022-10-29T09:01:56;17.50;99.90
6355;DHT22;3210;48.708;9.030;2022-10-29T09:04:25;17.60;99.90
6355;DHT22;3210;48.708;9.030;2022-10-29T09:07:03;17.70;99.90
6355;DHT22;3210;48.708;9.030;2022-10-29T09:09:38;17.70;99.90
6355;DHT22;3210;48.708;9.030;2022-10-29T09:12:19;17.60;99.90
6355;DHT22;3210;48.708;9.030;2022-10-29T09:15:29;17.70;99.90
6355;DHT22;3210;48.708;9.030;2022-10-29T09:18:13;17.80;99.90
6355;DHT22;3210;48.708;9.030;2022-10-29T09:20:49;18.00;99.90
6355;DHT22;3210;48.708;9.030;2022-10-29T09:23:26;18.10;99.90
6355;DHT22;3210;48.708;9.030;2022-10-29T09:26:01;18.40;99.90
6355;DHT22;3210;48.708;9.030;2022-10-29T09:28:38;18.40;99.90
6355;DHT22;3210;48.708;9.030;2022-10-29T09:31:20;18.50;99.90
6355;DHT22;3210;48.708;9.030;2022-10-29T09:33:52;18.70;99.50
6355;DHT22;3210;48.708;9.030;2022-10-29T09:36:22;18.80;98.50
6355;DHT22;3210;48.708;9.030;2022-10-29T09:38:54;18.90;96.40
6355;DHT22;3210;48.708;9.030;2022-10-29T09:41:26;19.10;92.00
6355;DHT22;3210;48.708;9.030;2022-10-29T09:43:59;19.30;78.50
6355;DHT22;3210;48.708;9.030;2022-10-29T09:46:34;19.40;75.00
6355;DHT22;3210;48.708;9.030;2022-10-29T09:49:16;19.60;61.60
6355;DHT22;3210;48.708;9.030;2022-10-29T09:51:51;19.70;63.10
6355;DHT22;3210;48.708;9.030;2022-10-29T09:54:22;19.80;57.00
6355;DHT22;3210;48.708;9.030;2022-10-29T09:56:50;19.90;48.10
6355;DHT22;3210;48.708;9.030;2022-10-29T09:59:23;20.10;37.30
6355;DHT22;3210;48.708;9.030;2022-10-29T10:01:52;20.20;56.00
6355;DHT22;3210;48.708;9.030;2022-10-29T10:04:25;20.40;22.10
6355;DHT22;3210;48.708;9.030;2022-10-29T10:07:05;20.60;21.70
6355;DHT22;3210;48.708;9.030;2022-10-29T10:09:50;20.70;14.70
6355;DHT22;3210;48.708;9.030;2022-10-29T10:12:18;20.70;8.70
6355;DHT22;3210;48.708;9.030;2022-10-29T10:14:45;20.90;3.00
6355;DHT22;3210;48.708;9.030;2022-10-29T10:17:13;21.00;1.40
6355;DHT22;3210;48.708;9.030;2022-10-29T10:19:44;21.10;1.00
6355;DHT22;3210;48.708;9.030;2022-10-29T10:22:17;21.20;1.00
6355;DHT22;3210;48.708;9.030;2022-10-29T10:24:45;21.20;1.00
6355;DHT22;3210;48.708;9.030;2022-10-29T10:27:30;21.20;1.00
6355;DHT22;3210;48.708;9.030;2022-10-29T10:30:12;21.30;1.00
6355;DHT22;3210;48.708;9.030;2022-10-29T10:32:40;21.40;1.00
6355;DHT22;3210;48.708;9.030;2022-10-29T10:35:29;21.50;1.00
6355;DHT22;3210;48.708;9.030;2022-10-29T10:37:57;21.70;1.00
6355;DHT22;3210;48.708;9.030;2022-10-29T10:40:32;21.80;1.00
6355;DHT22;3210;48.708;9.030;2022-10-29T10:42:58;21.80;1.00
6355;DHT22;3210;48.708;9.030;2022-10-29T10:45:28;21.90;1.00
6355;DHT22;3210;48.708;9.030;2022-10-29T10:47:57;22.00;1.00
6355;DHT22;3210;48.708;9.030;2022-10-29T10:50:28;22.10;1.00
6355;DHT22;3210;48.708;9.030;2022-10-29T10:52:58;22.10;1.00
6355;DHT22;3210;48.708;9.030;2022-10-29T10:55:27;22.20;1.00
6355;DHT22;3210;48.708;9.030;2022-10-29T10:58:01;22.20;1.00
6355;DHT22;3210;48.708;9.030;2022-10-29T11:00:33;22.20;1.00
6355;DHT22;3210;48.708;9.030;2022-10-29T11:03:09;22.20;1.00
6355;DHT22;3210;48.708;9.030;2022-10-29T11:05:43;22.30;1.00
6355;DHT22;3210;48.708;9.030;2022-10-29T11:08:16;22.40;1.00
6355;DHT22;3210;48.708;9.030;2022-10-29T11:10:49;22.50;1.00
6355;DHT22;3210;48.708;9.030;2022-10-29T11:13:20;22.50;1.00
6355;DHT22;3210;48.708;9.030;2022-10-29T11:15:51;22.60;1.00
6355;DHT22;3210;48.708;9.030;2022-10-29T11:18:24;22.70;1.00
6355;DHT22;3210;48.708;9.030;2022-10-29T11:21:02;22.70;1.00
6355;DHT22;3210;48.708;9.030;2022-10-29T11:23:38;22.70;1.00
6355;DHT22;3210;48.708;9.030;2022-10-29T11:26:10;22.70;1.00
6355;DHT22;3210;48.708;9.030;2022-10-29T11:28:41;22.70;1.00
6355;DHT22;3210;48.708;9.030;2022-10-29T11:31:18;22.80;1.00
6355;DHT22;3210;48.708;9.030;2022-10-29T11:33:51;23.00;1.00
6355;DHT22;3210;48.708;9.030;2022-10-29T11:36:25;23.00;1.00
6355;DHT22;3210;48.708;9.030;2022-10-29T11:38:56;23.00;1.00
6355;DHT22;3210;48.708;9.030;2022-10-29T11:41:28;23.10;1.00
6355;DHT22;3210;48.708;9.030;2022-10-29T11:43:56;23.30;1.00
6355;DHT22;3210;48.708;9.030;2022-10-29T11:46:31;23.30;1.00
6355;DHT22;3210;48.708;9.030;2022-10-29T11:49:18;23.40;1.00
6355;DHT22;3210;48.708;9.030;2022-10-29T11:51:58;23.40;1.00
6355;DHT22;3210;48.708;9.030;2022-10-29T11:54:41;23.50;1.00
6355;DHT22;3210;48.708;9.030;2022-10-29T11:57:14;23.50;1.00
6355;DHT22;3210;48.708;9.030;2022-10-29T12:00:03;23.50;1.00
6355;DHT22;3210;48.708;9.030;2022-10-29T12:05:27;23.60;1.00
6355;DHT22;3210;48.708;9.030;2022-10-29T12:08:06;23.40;1.00
6355;DHT22;3210;48.708;9.030;2022-10-29T12:10:42;23.40;1.00
6355;DHT22;3210;48.708;9.030;2022-10-29T12:13:18;23.40;1.00
6355;DHT22;3210;48.708;9.030;2022-10-29T12:15:53;23.30;1.00
6355;DHT22;3210;48.708;9.030;2022-10-29T12:18:28;23.20;1.00
6355;DHT22;3210;48.708;9.030;2022-10-29T12:21:01;23.20;1.00
6355;DHT22;3210;48.708;9.030;2022-10-29T12:23:39;23.20;1.00
6355;DHT22;3210;48.708;9.030;2022-10-29T12:26:13;23.20;1.00
6355;DHT22;3210;48.708;9.030;2022-10-29T12:28:47;23.40;1.00
6355;DHT22;3210;48.708;9.030;2022-10-29T12:31:23;23.50;1.00
6355;DHT22;3210;48.708;9.030;2022-10-29T12:33:58;23.60;1.00
6355;DHT22;3210;48.708;9.030;2022-10-29T12:36:33;23.60;1.00
6355;DHT22;3210;48.708;9.030;2022-10-29T12:39:05;23.50;1.00
6355;DHT22;3210;48.708;9.030;2022-10-29T12:41:41;23.50;1.00
6355;DHT22;3210;48.708;9.030;2022-10-29T12:44:14;23.50;1.00
6355;DHT22;3210;48.708;9.030;2022-10-29T12:46:53;23.40;1.00
6355;DHT22;3210;48.708;9.030;2022-10-29T12:49:35;23.40;1.00
6355;DHT22;3210;48.708;9.030;2022-10-29T12:52:09;23.30;1.00
6355;DHT22;3210;48.708;9.030;2022-10-29T12:54:40;23.30;1.00
6355;DHT22;3210;48.708;9.030;2022-10-29T12:57:20;23.40;1.00
6355;DHT22;3210;48.708;9.030;2022-10-29T12:59:48;23.40;1.00
6355;DHT22;3210;48.708;9.030;2022-10-29T13:02:25;23.40;1.00
6355;DHT22;3210;48.708;9.030;2022-10-29T13:05:11;23.30;1.00
6355;DHT22;3210;48.708;9.030;2022-10-29T13:10:49;23.40;1.00
6355;DHT22;3210;48.708;9.030;2022-10-29T13:13:35;23.40;1.00
6355;DHT22;3210;48.708;9.030;2022-10-29T13:16:07;23.50;1.00
6355;DHT22;3210;48.708;9.030;2022-10-29T13:18:46;23.50;1.00
6355;DHT22;3210;48.708;9.030;2022-10-29T13:21:54;23.50;1.00
6355;DHT22;3210;48.708;9.030;2022-10-29T13:24:22;23.40;1.00
6355;DHT22;3210;48.708;9.030;2022-10-29T13:27:00;23.40;1.00
6355;DHT22;3210;48.708;9.030;2022-10-29T13:29:49;23.50;1.00
6355;DHT22;3210;48.708;9.030;2022-10-29T13:32:33;23.50;1.00
6355;DHT22;3210;48.708;9.030;2022-10-29T13:35:14;23.60;1.00
6355;DHT22;3210;48.708;9.030;2022-10-29T13:37:59;23.60;1.00
6355;DHT22;3210;48.708;9.030;2022-10-29T13:43:58;23.50;1.00
6355;DHT22;3210;48.708;9.030;2022-10-29T13:46:33;23.50;1.00
6355;DHT22;3210;48.708;9.030;2022-10-29T13:49:08;23.40;1.00
6355;DHT22;3210;48.708;9.030;2022-10-29T13:51:52;23.50;1.00
6355;DHT22;3210;48.708;9.030;2022-10-29T13:54:28;23.50;1.00
6355;DHT22;3210;48.708;9.030;2022-10-29T13:57:02;23.50;1.00
6355;DHT22;3210;48.708;9.030;2022-10-29T13:59:37;23.50;1.00
6355;DHT22;3210;48.708;9.030;2022-10-29T14:02:18;23.50;1.00
6355;DHT22;3210;48.708;9.030;2022-10-29T14:04:49;23.50;1.00
6355;DHT22;3210;48.708;9.030;2022-10-29T14:07:22;23.50;1.00
6355;DHT22;3210;48.708;9.030;2022-10-29T14:09:54;23.40;1.00
6355;DHT22;3210;48.708;9.030;2022-10-29T14:12:26;23.40;1.00
6355;DHT22;3210;48.708;9.030;2022-10-29T14:15:03;23.30;1.00
6355;DHT22;3210;48.708;9.030;2022-10-29T14:17:39;23.10;1.00
6355;DHT22;3210;48.708;9.030;2022-10-29T14:20:27;23.00;1.00
6355;DHT22;3210;48.708;9.030;2022-10-29T14:22:54;23.00;1.00
6355;DHT22;3210;48.708;9.030;2022-10-29T14:25:32;22.90;1.00
6355;DHT22;3210;48.708;9.030;2022-10-29T14:28:14;22.80;1.00
6355;DHT22;3210;48.708;9.030;2022-10-29T14:30:43;22.70;1.00
6355;DHT22;3210;48.708;9.030;2022-10-29T14:33:24;22.70;1.00
6355;DHT22;3210;48.708;9.030;2022-10-29T14:35:55;22.70;1.00
6355;DHT22;3210;48.708;9.030;2022-10-29T14:38:30;22.60;1.00
6355;DHT22;3210;48.708;9.030;2022-10-29T14:40:58;22.50;1.00
6355;DHT22;3210;48.708;9.030;2022-10-29T14:43:26;22.40;1.00
6355;DHT22;3210;48.708;9.030;2022-10-29T14:45:55;22.20;1.00
6355;DHT22;3210;48.708;9.030;2022-10-29T14:48:34;22.20;1.00
6355;DHT22;3210;48.708;9.030;2022-10-29T14:51:05;22.10;1.00
6355;DHT22;3210;48.708;9.030;2022-10-29T14:53:33;21.90;1.00
6355;DHT22;3210;48.708;9.030;2022-10-29T14:56:07;21.90;1.00
6355;DHT22;3210;48.708;9.030;2022-10-29T14:58:40;21.80;1.00
6355;DHT22;3210;48.708;9.030;2022-10-29T15:01:13;21.70;1.00
6355;DHT22;3210;48.708;9.030;2022-10-29T15:03:43;21.60;1.00
6355;DHT22;3210;48.708;9.030;2022-10-29T15:06:13;21.60;1.00
6355;DHT22;3210;48.708;9.030;2022-10-29T15:08:42;21.60;1.00
6355;DHT22;3210;48.708;9.030;2022-10-29T15:11:30;21.50;1.00
6355;DHT22;3210;48.708;9.030;2022-10-29T15:13:57;21.40;1.00
6355;DHT22;3210;48.708;9.030;2022-10-29T15:16:25;21.20;1.00
6355;DHT22;3210;48.708;9.030;2022-10-29T15:18:54;20.90;1.00
6355;DHT22;3210;48.708;9.030;2022-10-29T15:21:22;20.70;1.00
6355;DHT22;3210;48.708;9.030;2022-10-29T15:23:53;20.60;1.00
6355;DHT22;3210;48.708;9.030;2022-10-29T15:26:21;20.30;1.00
6355;DHT22;3210;48.708;9.030;2022-10-29T15:28:49;20.20;1.00
6355;DHT22;3210;48.708;9.030;2022-10-29T15:31:19;20.10;1.00
6355;DHT22;3210;48.708;9.030;2022-10-29T15:33:51;19.90;1.00
6355;DHT22;3210;48.708;9.030;2022-10-29T15:36:19;19.80;1.00
6355;DHT22;3210;48.708;9.030;2022-10-29T15:39:23;19.70;1.00
6355;DHT22;3210;48.708;9.030;2022-10-29T15:41:53;19.80;1.00
6355;DHT22;3210;48.708;9.030;2022-10-29T15:44:30;19.60;1.00
6355;DHT22;3210;48.708;9.030;2022-10-29T15:46:59;19.50;1.00
6355;DHT22;3210;48.708;9.030;2022-10-29T15:49:28;19.50;1.00
6355;DHT22;3210;48.708;9.030;2022-10-29T15:51:56;19.40;1.00
6355;DHT22;3210;48.708;9.030;2022-10-29T15:54:24;19.30;1.00
6355;DHT22;3210;48.708;9.030;2022-10-29T15:56:51;19.10;1.00
6355;DHT22;3210;48.708;9.030;2022-10-29T15:59:22;18.90;1.00
6355;DHT22;3210;48.708;9.030;2022-10-29T16:01:49;18.70;1.00
6355;DHT22;3210;48.708;9.030;2022-10-29T16:04:16;18.60;1.00
6355;DHT22;3210;48.708;9.030;2022-10-29T16:06:44;18.50;34.00
6355;DHT22;3210;48.708;9.030;2022-10-29T16:09:16;18.30;82.00
6355;DHT22;3210;48.708;9.030;2022-10-29T16:11:43;18.30;96.60
6355;DHT22;3210;48.708;9.030;2022-10-29T16:14:10;18.10;99.90
6355;DHT22;3210;48.708;9.030;2022-10-29T16:16:37;18.00;99.90
6355;DHT22;3210;48.708;9.030;2022-10-29T16:19:04;17.90;99.90
6355;DHT22;3210;48.708;9.030;2022-10-29T16:21:30;17.70;99.90
6355;DHT22;3210;48.708;9.030;2022-10-29T16:23:59;17.60;99.90
6355;DHT22;3210;48.708;9.030;2022-10-29T16:26:25;17.50;99.90
6355;DHT22;3210;48.708;9.030;2022-10-29T16:28:52;17.30;99.90
6355;DHT22;3210;48.708;9.030;2022-10-29T16:31:20;17.30;99.90
6355;DHT22;3210;48.708;9.030;2022-10-29T16:33:49;17.20;99.90
6355;DHT22;3210;48.708;9.030;2022-10-29T16:36:16;17.10;99.90
6355;DHT22;3210;48.708;9.030;2022-10-29T16:38:43;17.00;99.90
6355;DHT22;3210;48.708;9.030;2022-10-29T16:41:13;16.90;99.90
6355;DHT22;3210;48.708;9.030;2022-10-29T16:43:40;16.90;99.90
6355;DHT22;3210;48.708;9.030;2022-10-29T16:46:08;16.80;99.90
6355;DHT22;3210;48.708;9.030;2022-10-29T16:48:35;16.80;99.90